PWSweather.com
Personal Weather Stations
Station Observations
GEELONGWX1
Bell Post Hill, GeelongAU

Bell Post HillGeelongAU

Lat: -38.101, Lon: 144.326

Elevation: 204

Station Type: Davis Vantage Pro2

http://www.geelongweather.com

High Low Average
Temperature 65.0°F18.3°F 52.4°F11.3°F 58.1°F14.5°F
Dew Point 53.4°F11.9°F 45.4°F7.4°F 48.2°F9.0°F
Winds 12.7 mph SSW20.4 mph SSW Calm Calm 5.3 mph 8.5 mph
Wind Gusts 25.3 mph40.7 mph -- 9.6 mph15.4 mph
Humidity 78% 55% 70%
Pressure 30.36 in1028.10 in 30.16 in1021.30 in -
Precipitation 0.00 in0.00 in - -
Hour Temp Dew Point Humidity Winds Wind Gusts Pressure Precip Precip Rate Daily Precip Total
12:00 AM 54.1°F12.3°C 47.0°F8.3°C 77% 10.4 mph SSW16.7 kmh SSW 15.0 mph24.1 kmh 30.16 in1021.3 mb - 0.00 in0.0 mm 0.00 in0.0 mm
12:10 AM 54.2°F12.3°C 47.1°F8.4°C 77% 8.1 mph SW13.0 kmh SW 25.3 mph40.7 kmh 30.16 in1021.3 mb - 0.00 in0.0 mm 0.00 in0.0 mm
12:20 AM 54.3°F12.4°C 47.2°F8.4°C 77% 11.5 mph SSW18.5 kmh SSW 13.8 mph22.2 kmh 30.17 in1021.7 mb - 0.00 in0.0 mm 0.00 in0.0 mm
12:30 AM 54.3°F12.4°C 47.2°F8.4°C 77% 6.9 mph SSW11.1 kmh SSW 11.5 mph18.5 kmh 30.17 in1021.7 mb - 0.00 in0.0 mm 0.00 in0.0 mm
12:40 AM 54.2°F12.3°C 47.1°F8.4°C 77% 9.2 mph SSW14.8 kmh SSW 16.1 mph25.9 kmh 30.17 in1021.7 mb - 0.00 in0.0 mm 0.00 in0.0 mm
12:50 AM 54.1°F12.3°C 47.0°F8.3°C 77% 8.1 mph SSW13.0 kmh SSW 13.8 mph22.2 kmh 30.17 in1021.7 mb - 0.00 in0.0 mm 0.00 in0.0 mm
01:00 AM 54.0°F12.2°C 47.0°F8.3°C 77% 4.6 mph SW7.4 kmh SW 9.2 mph14.8 kmh 30.17 in1021.7 mb - 0.00 in0.0 mm 0.00 in0.0 mm
01:10 AM 53.9°F12.2°C 46.9°F8.3°C 77% 5.8 mph SW9.3 kmh SW 10.4 mph16.7 kmh 30.18 in1022.0 mb - 0.00 in0.0 mm 0.00 in0.0 mm
01:20 AM 53.8°F12.1°C 47.1°F8.4°C 78% 8.1 mph SW13.0 kmh SW 11.5 mph18.5 kmh 30.18 in1022.0 mb - 0.00 in0.0 mm 0.00 in0.0 mm
01:30 AM 53.7°F12.1°C 47.0°F8.3°C 78% 6.9 mph SSW11.1 kmh SSW 11.5 mph18.5 kmh 30.19 in1022.4 mb - 0.00 in0.0 mm 0.00 in0.0 mm
01:40 AM 53.7°F12.1°C 47.0°F8.3°C 78% 5.8 mph SSW9.3 kmh SSW 9.2 mph14.8 kmh 30.19 in1022.4 mb - 0.00 in0.0 mm 0.00 in0.0 mm
01:50 AM 53.8°F12.1°C 46.8°F8.2°C 77% 6.9 mph SSW11.1 kmh SSW 11.5 mph18.5 kmh 30.19 in1022.4 mb - 0.00 in0.0 mm 0.00 in0.0 mm
02:00 AM 54.0°F12.2°C 46.9°F8.3°C 77% 8.1 mph SW13.0 kmh SW 16.1 mph25.9 kmh 30.19 in1022.4 mb - 0.00 in0.0 mm 0.00 in0.0 mm
02:10 AM 53.9°F12.2°C 46.9°F8.3°C 77% 5.8 mph SSW9.3 kmh SSW 6.9 mph11.1 kmh 30.19 in1022.4 mb - 0.00 in0.0 mm 0.00 in0.0 mm
02:20 AM 53.7°F12.1°C 47.0°F8.3°C 78% 5.8 mph SSW9.3 kmh SSW 10.4 mph16.7 kmh 30.19 in1022.4 mb - 0.00 in0.0 mm 0.00 in0.0 mm
02:30 AM 53.5°F11.9°C 46.8°F8.2°C 78% 2.3 mph SSW3.7 kmh SSW 9.2 mph14.8 kmh 30.19 in1022.4 mb - 0.00 in0.0 mm 0.00 in0.0 mm
02:40 AM 53.3°F11.8°C 46.3°F7.9°C 77% 4.6 mph SW7.4 kmh SW 10.4 mph16.7 kmh 30.19 in1022.4 mb - 0.00 in0.0 mm 0.00 in0.0 mm
02:50 AM 53.2°F11.8°C 46.5°F8.1°C 78% 5.8 mph SSW9.3 kmh SSW 11.5 mph18.5 kmh 30.19 in1022.4 mb - 0.00 in0.0 mm 0.00 in0.0 mm
03:00 AM 53.1°F11.7°C 46.5°F8.1°C 78% 4.6 mph S7.4 kmh S 9.2 mph14.8 kmh 30.19 in1022.4 mb - 0.00 in0.0 mm 0.00 in0.0 mm
03:10 AM 53.1°F11.7°C 46.4°F8.0°C 78% 5.8 mph SSW9.3 kmh SSW 15.0 mph24.1 kmh 30.19 in1022.4 mb - 0.00 in0.0 mm 0.00 in0.0 mm
03:20 AM 53.2°F11.8°C 46.1°F7.8°C 77% 6.9 mph SSW11.1 kmh SSW 12.7 mph20.4 kmh 30.19 in1022.4 mb - 0.00 in0.0 mm 0.00 in0.0 mm
03:30 AM 53.3°F11.8°C 46.3°F7.9°C 77% 8.1 mph SW13.0 kmh SW 10.4 mph16.7 kmh 30.20 in1022.7 mb - 0.00 in0.0 mm 0.00 in0.0 mm
03:40 AM 53.4°F11.9°C 46.7°F8.2°C 78% 8.1 mph S13.0 kmh S 11.5 mph18.5 kmh 30.20 in1022.7 mb - 0.00 in0.0 mm 0.00 in0.0 mm
03:50 AM 53.4°F11.9°C 46.7°F8.2°C 78% 5.8 mph SW9.3 kmh SW 10.4 mph16.7 kmh 30.20 in1022.7 mb - 0.00 in0.0 mm 0.00 in0.0 mm
04:00 AM 53.6°F12.0°C 46.6°F8.1°C 77% 6.9 mph SW11.1 kmh SW 8.1 mph13.0 kmh 30.20 in1022.7 mb - 0.00 in0.0 mm 0.00 in0.0 mm
04:10 AM 53.5°F11.9°C 46.5°F8.1°C 77% 5.8 mph SSW9.3 kmh SSW 13.8 mph22.2 kmh 30.20 in1022.7 mb - 0.00 in0.0 mm 0.00 in0.0 mm
04:20 AM 53.3°F11.8°C 46.3°F7.9°C 77% 8.1 mph SW13.0 kmh SW 12.7 mph20.4 kmh 30.21 in1023.0 mb - 0.00 in0.0 mm 0.00 in0.0 mm
04:30 AM 53.3°F11.8°C 46.3°F7.9°C 77% 6.9 mph SW11.1 kmh SW 10.4 mph16.7 kmh 30.21 in1023.0 mb - 0.00 in0.0 mm 0.00 in0.0 mm
04:40 AM 53.4°F11.9°C 46.7°F8.2°C 78% 9.2 mph SSW14.8 kmh SSW 16.1 mph25.9 kmh 30.21 in1023.0 mb - 0.00 in0.0 mm 0.00 in0.0 mm
04:50 AM 53.4°F11.9°C 46.4°F8.0°C 77% 6.9 mph SW11.1 kmh SW 9.2 mph14.8 kmh 30.21 in1023.0 mb - 0.00 in0.0 mm 0.00 in0.0 mm
05:00 AM 53.5°F11.9°C 46.5°F8.1°C 77% 6.9 mph SW11.1 kmh SW 12.7 mph20.4 kmh 30.21 in1023.0 mb - 0.00 in0.0 mm 0.00 in0.0 mm
05:10 AM 53.5°F11.9°C 46.5°F8.1°C 77% 5.8 mph SSW9.3 kmh SSW 10.4 mph16.7 kmh 30.22 in1023.4 mb - 0.00 in0.0 mm 0.00 in0.0 mm
05:20 AM 53.3°F11.8°C 46.3°F7.9°C 77% 4.6 mph SSW7.4 kmh SSW 8.1 mph13.0 kmh 30.22 in1023.4 mb - 0.00 in0.0 mm 0.00 in0.0 mm
05:30 AM 53.1°F11.7°C 46.1°F7.8°C 77% 4.6 mph SW7.4 kmh SW 10.4 mph16.7 kmh 30.22 in1023.4 mb - 0.00 in0.0 mm 0.00 in0.0 mm
05:40 AM 53.2°F11.8°C 46.2°F7.9°C 77% 8.1 mph SSW13.0 kmh SSW 12.7 mph20.4 kmh 30.23 in1023.7 mb - 0.00 in0.0 mm 0.00 in0.0 mm
05:50 AM 53.3°F11.8°C 46.3°F7.9°C 77% 6.9 mph SW11.1 kmh SW 15.0 mph24.1 kmh 30.23 in1023.7 mb - 0.00 in0.0 mm 0.00 in0.0 mm
06:00 AM 53.1°F11.7°C 46.1°F7.8°C 77% 5.8 mph SW9.3 kmh SW 10.4 mph16.7 kmh 30.23 in1023.7 mb - 0.00 in0.0 mm 0.00 in0.0 mm
06:10 AM 53.0°F11.7°C 46.0°F7.8°C 77% 5.8 mph SSW9.3 kmh SSW 8.1 mph13.0 kmh 30.24 in1024.0 mb - 0.00 in0.0 mm 0.00 in0.0 mm
06:20 AM 52.8°F11.6°C 45.8°F7.7°C 77% 5.8 mph SSW9.3 kmh SSW 15.0 mph24.1 kmh 30.25 in1024.4 mb - 0.00 in0.0 mm 0.00 in0.0 mm
06:30 AM 52.7°F11.5°C 45.7°F7.6°C 77% 6.9 mph SSW11.1 kmh SSW 10.4 mph16.7 kmh 30.25 in1024.4 mb - 0.00 in0.0 mm 0.00 in0.0 mm
06:40 AM 52.5°F11.4°C 45.8°F7.7°C 78% 5.8 mph SSW9.3 kmh SSW 11.5 mph18.5 kmh 30.25 in1024.4 mb - 0.00 in0.0 mm 0.00 in0.0 mm
06:50 AM 52.4°F11.3°C 45.4°F7.4°C 77% 6.9 mph SSW11.1 kmh SSW 11.5 mph18.5 kmh 30.26 in1024.7 mb - 0.00 in0.0 mm 0.00 in0.0 mm
07:00 AM 52.4°F11.3°C 45.4°F7.4°C 77% Calm Calm 12.7 mph20.4 kmh 30.26 in1024.7 mb - 0.00 in0.0 mm 0.00 in0.0 mm
07:10 AM 52.6°F11.4°C 45.9°F7.7°C 78% 4.6 mph SSW7.4 kmh SSW 10.4 mph16.7 kmh 30.27 in1025.1 mb - 0.00 in0.0 mm 0.00 in0.0 mm
07:20 AM 52.8°F11.6°C 45.8°F7.7°C 77% 9.2 mph SSW14.8 kmh SSW 13.8 mph22.2 kmh 30.27 in1025.1 mb - 0.00 in0.0 mm 0.00 in0.0 mm
07:30 AM 53.4°F11.9°C 46.4°F8.0°C 77% 9.2 mph S14.8 kmh S 15.0 mph24.1 kmh 30.27 in1025.1 mb - 0.00 in0.0 mm 0.00 in0.0 mm
07:40 AM 54.7°F12.6°C 47.6°F8.7°C 77% 8.1 mph S13.0 kmh S 15.0 mph24.1 kmh 30.28 in1025.4 mb - 0.00 in0.0 mm 0.00 in0.0 mm
07:50 AM 55.5°F13.1°C 48.8°F9.3°C 78% 9.2 mph SSW14.8 kmh SSW 10.4 mph16.7 kmh 30.28 in1025.4 mb - 0.00 in0.0 mm 0.00 in0.0 mm
08:00 AM 56.0°F13.3°C 49.2°F9.6°C 78% 8.1 mph SSW13.0 kmh SSW 11.5 mph18.5 kmh 30.29 in1025.7 mb - 0.00 in0.0 mm 0.00 in0.0 mm
08:10 AM 56.3°F13.5°C 49.6°F9.8°C 78% 9.2 mph SW14.8 kmh SW 11.5 mph18.5 kmh 30.28 in1025.4 mb - 0.00 in0.0 mm 0.00 in0.0 mm
08:20 AM 57.3°F14.1°C 50.5°F10.3°C 78% 9.2 mph SSW14.8 kmh SSW 15.0 mph24.1 kmh 30.29 in1025.7 mb - 0.00 in0.0 mm 0.00 in0.0 mm
08:30 AM 57.5°F14.2°C 50.7°F10.4°C 78% 9.2 mph SW14.8 kmh SW 13.8 mph22.2 kmh 30.29 in1025.7 mb - 0.00 in0.0 mm 0.00 in0.0 mm
08:40 AM 57.5°F14.2°C 50.7°F10.4°C 78% 6.9 mph SSW11.1 kmh SSW 11.5 mph18.5 kmh 30.29 in1025.7 mb - 0.00 in0.0 mm 0.00 in0.0 mm
08:50 AM 58.6°F14.8°C 51.4°F10.8°C 77% 5.8 mph SSW9.3 kmh SSW 15.0 mph24.1 kmh 30.30 in1026.1 mb - 0.00 in0.0 mm 0.00 in0.0 mm
09:00 AM 59.1°F15.1°C 51.9°F11.1°C 77% 6.9 mph S11.1 kmh S 17.3 mph27.8 kmh 30.30 in1026.1 mb - 0.00 in0.0 mm 0.00 in0.0 mm
09:10 AM 58.4°F14.7°C 51.2°F10.7°C 77% 8.1 mph SSW13.0 kmh SSW 17.3 mph27.8 kmh 30.30 in1026.1 mb - 0.00 in0.0 mm 0.00 in0.0 mm
09:20 AM 59.8°F15.4°C 52.2°F11.2°C 76% 8.1 mph SSW13.0 kmh SSW 11.5 mph18.5 kmh 30.31 in1026.4 mb - 0.00 in0.0 mm 0.00 in0.0 mm
09:30 AM 58.9°F14.9°C 51.0°F10.6°C 75% 9.2 mph SSW14.8 kmh SSW 17.3 mph27.8 kmh 30.31 in1026.4 mb - 0.00 in0.0 mm 0.00 in0.0 mm
09:40 AM 57.9°F14.4°C 50.4°F10.2°C 76% 8.1 mph S13.0 kmh S 16.1 mph25.9 kmh 30.31 in1026.4 mb - 0.00 in0.0 mm 0.00 in0.0 mm
09:50 AM 61.8°F16.6°C 53.4°F11.9°C 74% 5.8 mph S9.3 kmh S 12.7 mph20.4 kmh 30.31 in1026.4 mb - 0.00 in0.0 mm 0.00 in0.0 mm
10:00 AM 62.1°F16.7°C 52.2°F11.2°C 70% 10.4 mph S16.7 kmh S 18.4 mph29.6 kmh 30.31 in1026.4 mb - 0.00 in0.0 mm 0.00 in0.0 mm
10:10 AM 62.5°F16.9°C 51.4°F10.8°C 67% 6.9 mph S11.1 kmh S 9.2 mph14.8 kmh 30.31 in1026.4 mb - 0.00 in0.0 mm 0.00 in0.0 mm
10:20 AM 61.2°F16.2°C 50.6°F10.3°C 68% 8.1 mph S13.0 kmh S 19.6 mph31.5 kmh 30.31 in1026.4 mb - 0.00 in0.0 mm 0.00 in0.0 mm
10:30 AM 63.4°F17.4°C 52.3°F11.3°C 67% 8.1 mph S13.0 kmh S 11.5 mph18.5 kmh 30.32 in1026.8 mb - 0.00 in0.0 mm 0.00 in0.0 mm
10:40 AM 62.0°F16.7°C 50.1°F10.1°C 65% 9.2 mph SSE14.8 kmh SSE 15.0 mph24.1 kmh 30.32 in1026.8 mb - 0.00 in0.0 mm 0.00 in0.0 mm
10:50 AM 61.7°F16.5°C 51.0°F10.6°C 68% 11.5 mph S18.5 kmh S 25.3 mph40.7 kmh 30.32 in1026.8 mb - 0.00 in0.0 mm 0.00 in0.0 mm
11:00 AM 62.7°F17.1°C 51.1°F10.6°C 66% 8.1 mph S13.0 kmh S 13.8 mph22.2 kmh 30.32 in1026.8 mb - 0.00 in0.0 mm 0.00 in0.0 mm
11:10 AM 62.1°F16.7°C 50.2°F10.1°C 65% 8.1 mph S13.0 kmh S 11.5 mph18.5 kmh 30.32 in1026.8 mb - 0.00 in0.0 mm 0.00 in0.0 mm
11:20 AM 63.9°F17.7°C 51.9°F11.1°C 65% 8.1 mph SSE13.0 kmh SSE 18.4 mph29.6 kmh 30.32 in1026.8 mb - 0.00 in0.0 mm 0.00 in0.0 mm
11:30 AM 61.3°F16.3°C 48.6°F9.2°C 63% 8.1 mph S13.0 kmh S 12.7 mph20.4 kmh 30.32 in1026.8 mb - 0.00 in0.0 mm 0.00 in0.0 mm
11:40 AM 62.1°F16.7°C 49.4°F9.7°C 63% 8.1 mph SSW13.0 kmh SSW 13.8 mph22.2 kmh 30.32 in1026.8 mb - 0.00 in0.0 mm 0.00 in0.0 mm
11:50 AM 61.8°F16.6°C 49.1°F9.5°C 63% 8.1 mph S13.0 kmh S 10.4 mph16.7 kmh 30.32 in1026.8 mb - 0.00 in0.0 mm 0.00 in0.0 mm
12:00 PM 60.9°F16.1°C 49.1°F9.5°C 65% 12.7 mph SSW20.4 kmh SSW 19.6 mph31.5 kmh 30.32 in1026.8 mb - 0.00 in0.0 mm 0.00 in0.0 mm
12:10 PM 62.1°F16.7°C 49.7°F9.8°C 64% 9.2 mph S14.8 kmh S 16.1 mph25.9 kmh 30.32 in1026.8 mb - 0.00 in0.0 mm 0.00 in0.0 mm
12:20 PM 63.0°F17.2°C 49.3°F9.6°C 61% 6.9 mph SSW11.1 kmh SSW 11.5 mph18.5 kmh 30.32 in1026.8 mb - 0.00 in0.0 mm 0.00 in0.0 mm
12:30 PM 62.2°F16.8°C 48.6°F9.2°C 61% 10.4 mph S16.7 kmh S 17.3 mph27.8 kmh 30.32 in1026.8 mb - 0.00 in0.0 mm 0.00 in0.0 mm
12:40 PM 62.1°F16.7°C 49.3°F9.6°C 63% 8.1 mph S13.0 kmh S 13.8 mph22.2 kmh 30.32 in1026.8 mb - 0.00 in0.0 mm 0.00 in0.0 mm
12:50 PM 61.1°F16.2°C 48.8°F9.3°C 64% 9.2 mph S14.8 kmh S 12.7 mph20.4 kmh 30.32 in1026.8 mb - 0.00 in0.0 mm 0.00 in0.0 mm
01:00 PM 61.5°F16.4°C 49.2°F9.6°C 64% 11.5 mph S18.5 kmh S 16.1 mph25.9 kmh 30.32 in1026.8 mb - 0.00 in0.0 mm 0.00 in0.0 mm
01:10 PM 63.3°F17.4°C 50.9°F10.5°C 64% 6.9 mph SSW11.1 kmh SSW 11.5 mph18.5 kmh 30.31 in1026.4 mb - 0.00 in0.0 mm 0.00 in0.0 mm
01:20 PM 63.4°F17.4°C 49.7°F9.8°C 61% 9.2 mph SSW14.8 kmh SSW 13.8 mph22.2 kmh 30.31 in1026.4 mb - 0.00 in0.0 mm 0.00 in0.0 mm
01:30 PM 62.9°F17.2°C 49.7°F9.8°C 62% 9.2 mph S14.8 kmh S 15.0 mph24.1 kmh 30.31 in1026.4 mb - 0.00 in0.0 mm 0.00 in0.0 mm
01:40 PM 62.4°F16.9°C 49.7°F9.8°C 63% 8.1 mph SSW13.0 kmh SSW 11.5 mph18.5 kmh 30.30 in1026.1 mb - 0.00 in0.0 mm 0.00 in0.0 mm
01:50 PM 65.0°F18.3°C 50.3°F10.2°C 59% Calm Calm 5.8 mph9.3 kmh 30.30 in1026.1 mb - 0.00 in0.0 mm 0.00 in0.0 mm
02:00 PM 63.8°F17.7°C 50.1°F10.1°C 61% 2.3 mph SW3.7 kmh SW 15.0 mph24.1 kmh 30.30 in1026.1 mb - 0.00 in0.0 mm 0.00 in0.0 mm
02:10 PM 63.7°F17.6°C 50.0°F10.0°C 61% 5.8 mph S9.3 kmh S 15.0 mph24.1 kmh 30.30 in1026.1 mb - 0.00 in0.0 mm 0.00 in0.0 mm
02:20 PM 64.8°F18.2°C 50.6°F10.3°C 60% 4.6 mph S7.4 kmh S 16.1 mph25.9 kmh 30.30 in1026.1 mb - 0.00 in0.0 mm 0.00 in0.0 mm
02:30 PM 64.7°F18.2°C 50.0°F10.0°C 59% 10.4 mph S16.7 kmh S 13.8 mph22.2 kmh 30.30 in1026.1 mb - 0.00 in0.0 mm 0.00 in0.0 mm
02:40 PM 63.7°F17.6°C 49.6°F9.8°C 60% 1.2 mph S1.9 kmh S 3.5 mph5.6 kmh 30.30 in1026.1 mb - 0.00 in0.0 mm 0.00 in0.0 mm
02:50 PM 64.2°F17.9°C 49.1°F9.5°C 58% Calm Calm -- 30.30 in1026.1 mb - 0.00 in0.0 mm 0.00 in0.0 mm
03:00 PM 63.7°F17.6°C 48.6°F9.2°C 58% 1.2 mph SSW1.9 kmh SSW 6.9 mph11.1 kmh 30.29 in1025.7 mb - 0.00 in0.0 mm 0.00 in0.0 mm
03:10 PM 63.8°F17.7°C 47.3°F8.5°C 55% 4.6 mph SSE7.4 kmh SSE 8.1 mph13.0 kmh 30.29 in1025.7 mb - 0.00 in0.0 mm 0.00 in0.0 mm
03:20 PM 64.2°F17.9°C 48.2°F9.0°C 56% 5.8 mph S9.3 kmh S 15.0 mph24.1 kmh 30.29 in1025.7 mb - 0.00 in0.0 mm 0.00 in0.0 mm
03:30 PM 64.4°F18.0°C 48.8°F9.3°C 57% 3.5 mph SSW5.6 kmh SSW 8.1 mph13.0 kmh 30.29 in1025.7 mb - 0.00 in0.0 mm 0.00 in0.0 mm
03:40 PM 64.8°F18.2°C 48.7°F9.3°C 56% 5.8 mph SSW9.3 kmh SSW 6.9 mph11.1 kmh 30.29 in1025.7 mb - 0.00 in0.0 mm 0.00 in0.0 mm
03:50 PM 64.6°F18.1°C 48.0°F8.9°C 55% 3.5 mph S5.6 kmh S 6.9 mph11.1 kmh 30.29 in1025.7 mb - 0.00 in0.0 mm 0.00 in0.0 mm
04:00 PM 63.7°F17.6°C 48.7°F9.3°C 58% 5.8 mph S9.3 kmh S 8.1 mph13.0 kmh 30.29 in1025.7 mb - 0.00 in0.0 mm 0.00 in0.0 mm
04:10 PM 63.6°F17.6°C 49.0°F9.4°C 59% 1.2 mph SSW1.9 kmh SSW 6.9 mph11.1 kmh 30.30 in1026.1 mb - 0.00 in0.0 mm 0.00 in0.0 mm
04:20 PM 62.9°F17.2°C 48.3°F9.1°C 59% 2.3 mph SSW3.7 kmh SSW -- 30.30 in1026.1 mb - 0.00 in0.0 mm 0.00 in0.0 mm
04:30 PM 63.0°F17.2°C 47.5°F8.6°C 57% 4.6 mph S7.4 kmh S 10.4 mph16.7 kmh 30.30 in1026.1 mb - 0.00 in0.0 mm 0.00 in0.0 mm
04:40 PM 62.5°F16.9°C 47.1°F8.4°C 57% Calm Calm -- 30.30 in1026.1 mb - 0.00 in0.0 mm 0.00 in0.0 mm
04:50 PM 62.4°F16.9°C 47.0°F8.3°C 57% 2.3 mph S3.7 kmh S 2.3 mph3.7 kmh 30.30 in1026.1 mb - 0.00 in0.0 mm 0.00 in0.0 mm
05:00 PM 62.4°F16.9°C 47.5°F8.6°C 58% 3.5 mph S5.6 kmh S 4.6 mph7.4 kmh 30.30 in1026.1 mb - 0.00 in0.0 mm 0.00 in0.0 mm
05:10 PM 62.0°F16.7°C 47.5°F8.6°C 59% 3.5 mph S5.6 kmh S 9.2 mph14.8 kmh 30.30 in1026.1 mb - 0.00 in0.0 mm 0.00 in0.0 mm
05:20 PM 61.8°F16.6°C 47.3°F8.5°C 59% 5.8 mph SSW9.3 kmh SSW 12.7 mph20.4 kmh 30.30 in1026.1 mb - 0.00 in0.0 mm 0.00 in0.0 mm
05:30 PM 62.5°F16.9°C 48.0°F8.9°C 59% 1.2 mph S1.9 kmh S -- 30.31 in1026.4 mb - 0.00 in0.0 mm 0.00 in0.0 mm
05:40 PM 62.0°F16.7°C 47.5°F8.6°C 59% Calm Calm -- 30.31 in1026.4 mb - 0.00 in0.0 mm 0.00 in0.0 mm
05:50 PM 61.6°F16.4°C 48.0°F8.9°C 61% 3.5 mph SSE5.6 kmh SSE 6.9 mph11.1 kmh 30.31 in1026.4 mb - 0.00 in0.0 mm 0.00 in0.0 mm
06:00 PM 60.6°F15.9°C 47.5°F8.6°C 62% Calm Calm -- 30.31 in1026.4 mb - 0.00 in0.0 mm 0.00 in0.0 mm
06:10 PM 59.8°F15.4°C 47.6°F8.7°C 64% 1.2 mph SSE1.9 kmh SSE 4.6 mph7.4 kmh 30.32 in1026.8 mb - 0.00 in0.0 mm 0.00 in0.0 mm
06:20 PM 59.5°F15.3°C 46.9°F8.3°C 63% Calm Calm -- 30.32 in1026.8 mb - 0.00 in0.0 mm 0.00 in0.0 mm
06:30 PM 59.3°F15.2°C 46.7°F8.2°C 63% Calm Calm 3.5 mph5.6 kmh 30.32 in1026.8 mb - 0.00 in0.0 mm 0.00 in0.0 mm
06:40 PM 59.3°F15.2°C 46.7°F8.2°C 63% 2.3 mph S3.7 kmh S 3.5 mph5.6 kmh 30.32 in1026.8 mb - 0.00 in0.0 mm 0.00 in0.0 mm
06:50 PM 59.2°F15.1°C 47.0°F8.3°C 64% 4.6 mph S7.4 kmh S 9.2 mph14.8 kmh 30.33 in1027.1 mb - 0.00 in0.0 mm 0.00 in0.0 mm
07:00 PM 59.2°F15.1°C 47.5°F8.6°C 65% 3.5 mph S5.6 kmh S 8.1 mph13.0 kmh 30.33 in1027.1 mb - 0.00 in0.0 mm 0.00 in0.0 mm
07:10 PM 59.2°F15.1°C 47.8°F8.8°C 66% Calm Calm 3.5 mph5.6 kmh 30.34 in1027.4 mb - 0.00 in0.0 mm 0.00 in0.0 mm
07:20 PM 59.0°F15.0°C 48.1°F8.9°C 67% 2.3 mph SSE3.7 kmh SSE 4.6 mph7.4 kmh 30.34 in1027.4 mb - 0.00 in0.0 mm 0.00 in0.0 mm
07:30 PM 58.8°F14.9°C 47.9°F8.8°C 67% Calm Calm -- 30.34 in1027.4 mb - 0.00 in0.0 mm 0.00 in0.0 mm
07:40 PM 58.6°F14.8°C 47.7°F8.7°C 67% 1.2 mph SW1.9 kmh SW 2.3 mph3.7 kmh 30.34 in1027.4 mb - 0.00 in0.0 mm 0.00 in0.0 mm
07:50 PM 58.3°F14.6°C 47.8°F8.8°C 68% 1.2 mph SSW1.9 kmh SSW 4.6 mph7.4 kmh 30.34 in1027.4 mb - 0.00 in0.0 mm 0.00 in0.0 mm
08:00 PM 58.1°F14.5°C 48.0°F8.9°C 69% 2.3 mph SW3.7 kmh SW 3.5 mph5.6 kmh 30.35 in1027.8 mb - 0.00 in0.0 mm 0.00 in0.0 mm
08:10 PM 58.0°F14.4°C 47.9°F8.8°C 69% 3.5 mph S5.6 kmh S 3.5 mph5.6 kmh 30.35 in1027.8 mb - 0.00 in0.0 mm 0.00 in0.0 mm
08:20 PM 57.9°F14.4°C 47.8°F8.8°C 69% Calm Calm -- 30.35 in1027.8 mb - 0.00 in0.0 mm 0.00 in0.0 mm
08:30 PM 57.8°F14.3°C 48.1°F8.9°C 70% Calm Calm -- 30.36 in1028.1 mb - 0.00 in0.0 mm 0.00 in0.0 mm
08:40 PM 57.7°F14.3°C 48.0°F8.9°C 70% 1.2 mph SW1.9 kmh SW 4.6 mph7.4 kmh 30.36 in1028.1 mb - 0.00 in0.0 mm 0.00 in0.0 mm
08:50 PM 57.6°F14.2°C 48.3°F9.1°C 71% 2.3 mph SW3.7 kmh SW 3.5 mph5.6 kmh 30.36 in1028.1 mb - 0.00 in0.0 mm 0.00 in0.0 mm
09:00 PM 57.4°F14.1°C 48.1°F8.9°C 71% 3.5 mph SW5.6 kmh SW 4.6 mph7.4 kmh 30.36 in1028.1 mb - 0.00 in0.0 mm 0.00 in0.0 mm
09:10 PM 57.2°F14.0°C 48.3°F9.1°C 72% Calm Calm -- 30.36 in1028.1 mb - 0.00 in0.0 mm 0.00 in0.0 mm
09:20 PM 57.1°F13.9°C 48.1°F8.9°C 72% 2.3 mph S3.7 kmh S 4.6 mph7.4 kmh 30.36 in1028.1 mb - 0.00 in0.0 mm 0.00 in0.0 mm
09:30 PM 57.0°F13.9°C 48.4°F9.1°C 73% 3.5 mph SSW5.6 kmh SSW 3.5 mph5.6 kmh 30.36 in1028.1 mb - 0.00 in0.0 mm 0.00 in0.0 mm
09:40 PM 56.9°F13.8°C 48.4°F9.1°C 73% 3.5 mph SSW5.6 kmh SSW 6.9 mph11.1 kmh 30.36 in1028.1 mb - 0.00 in0.0 mm 0.00 in0.0 mm
09:50 PM 56.9°F13.8°C 48.3°F9.1°C 73% 2.3 mph SW3.7 kmh SW 3.5 mph5.6 kmh 30.36 in1028.1 mb - 0.00 in0.0 mm 0.00 in0.0 mm
10:00 PM 56.8°F13.8°C 48.2°F9.0°C 73% 2.3 mph S3.7 kmh S 5.8 mph9.3 kmh 30.36 in1028.1 mb - 0.00 in0.0 mm 0.00 in0.0 mm
10:10 PM 56.8°F13.8°C 48.6°F9.2°C 74% 4.6 mph S7.4 kmh S 6.9 mph11.1 kmh 30.36 in1028.1 mb - 0.00 in0.0 mm 0.00 in0.0 mm
10:20 PM 56.8°F13.8°C 48.6°F9.2°C 74% Calm Calm 3.5 mph5.6 kmh 30.36 in1028.1 mb - 0.00 in0.0 mm 0.00 in0.0 mm
10:30 PM 56.7°F13.7°C 48.9°F9.4°C 75% 2.3 mph SSW3.7 kmh SSW 3.5 mph5.6 kmh 30.36 in1028.1 mb - 0.00 in0.0 mm 0.00 in0.0 mm
10:40 PM 56.6°F13.7°C 48.8°F9.3°C 75% Calm Calm -- 30.36 in1028.1 mb - 0.00 in0.0 mm 0.00 in0.0 mm
10:50 PM 56.4°F13.6°C 48.6°F9.2°C 75% 3.5 mph S5.6 kmh S 5.8 mph9.3 kmh 30.36 in1028.1 mb - 0.00 in0.0 mm 0.00 in0.0 mm
11:00 PM 56.3°F13.5°C 48.5°F9.2°C 75% Calm Calm -- 30.36 in1028.1 mb - 0.00 in0.0 mm 0.00 in0.0 mm
11:10 PM 56.1°F13.4°C 48.6°F9.2°C 76% Calm Calm 3.5 mph5.6 kmh 30.36 in1028.1 mb - 0.00 in0.0 mm 0.00 in0.0 mm
11:20 PM 56.0°F13.3°C 48.5°F9.2°C 76% 4.6 mph SSW7.4 kmh SSW 4.6 mph7.4 kmh 30.36 in1028.1 mb - 0.00 in0.0 mm 0.00 in0.0 mm
11:30 PM 55.9°F13.3°C 48.8°F9.3°C 77% Calm Calm -- 30.36 in1028.1 mb - 0.00 in0.0 mm 0.00 in0.0 mm
11:40 PM 55.8°F13.2°C 48.7°F9.3°C 77% Calm Calm -- 30.36 in1028.1 mb - 0.00 in0.0 mm 0.00 in0.0 mm
11:50 PM 55.7°F13.2°C 48.6°F9.2°C 77% Calm Calm -- 30.36 in1028.1 mb - 0.00 in0.0 mm 0.00 in0.0 mm